createdAt,value
2022-11-18T00:04:48.191Z,3.46
2022-11-18T00:09:51.419Z,3.44
2022-11-18T00:14:58.461Z,3.46
2022-11-18T00:20:00.312Z,3.53
2022-11-18T00:25:02.131Z,3.56
2022-11-18T00:30:04.289Z,3.56
2022-11-18T00:35:06.537Z,3.56
2022-11-18T00:40:09.057Z,3.58
2022-11-18T00:45:10.912Z,3.67
2022-11-18T00:50:13.086Z,3.69
2022-11-18T00:55:14.948Z,3.70
2022-11-18T01:00:17.993Z,3.70
2022-11-18T01:05:19.853Z,3.74
2022-11-18T01:10:21.649Z,3.79
2022-11-18T01:15:23.474Z,3.75
2022-11-18T01:20:25.267Z,3.68
2022-11-18T01:25:27.968Z,3.68
2022-11-18T01:30:29.802Z,3.63
2022-11-18T01:35:36.390Z,3.56
2022-11-18T01:40:39.043Z,3.57
2022-11-18T01:45:43.116Z,3.62
2022-11-18T01:50:52.268Z,3.61
2022-11-18T01:55:58.104Z,3.62
2022-11-18T02:01:00.371Z,3.59
2022-11-18T02:06:05.074Z,3.61
2022-11-18T02:11:30.955Z,3.60
2022-11-18T02:16:45.836Z,3.59
2022-11-18T02:22:00.700Z,3.60
2022-11-18T02:27:41.648Z,3.58
2022-11-18T02:32:46.174Z,3.61
2022-11-18T02:38:02.886Z,3.59
2022-11-18T02:43:13.887Z,3.58
2022-11-18T02:48:17.862Z,3.49
2022-11-18T02:53:21.716Z,3.53
2022-11-18T02:58:26.287Z,3.53
2022-11-18T03:03:36.275Z,3.54
2022-11-18T03:08:46.237Z,3.51
2022-11-18T03:14:18.877Z,3.52
2022-11-18T03:19:38.055Z,3.49
2022-11-18T03:24:45.809Z,3.50
2022-11-18T03:29:55.131Z,3.54
2022-11-18T03:35:05.919Z,3.61
2022-11-18T03:40:30.491Z,3.63
2022-11-18T03:45:39.500Z,3.67
2022-11-18T03:51:04.923Z,3.62
2022-11-18T03:56:17.211Z,3.61
2022-11-18T04:01:31.975Z,3.54
2022-11-18T04:06:46.304Z,3.52
2022-11-18T04:12:02.759Z,3.48
2022-11-18T04:17:13.749Z,3.33
2022-11-18T04:22:16.370Z,3.28
2022-11-18T04:27:18.281Z,3.24
2022-11-18T04:32:20.110Z,3.13
2022-11-18T04:37:21.980Z,3.18
2022-11-18T04:42:23.862Z,3.17
2022-11-18T04:47:25.814Z,3.16
2022-11-18T04:52:27.703Z,3.09
2022-11-18T04:57:29.588Z,3.08
2022-11-18T05:02:31.504Z,2.98
2022-11-18T05:07:33.409Z,3.01
2022-11-18T05:12:50.684Z,3.00
2022-11-18T05:17:52.575Z,2.97
2022-11-18T05:22:54.517Z,2.96
2022-11-18T05:27:56.388Z,2.98
2022-11-18T05:32:58.211Z,2.96
2022-11-18T05:38:01.522Z,2.90
2022-11-18T05:43:12.571Z,2.97
2022-11-18T05:48:14.673Z,2.96
2022-11-18T05:53:18.902Z,2.93
2022-11-18T05:58:20.853Z,2.97
2022-11-18T06:03:30.676Z,2.88
2022-11-18T06:08:45.263Z,2.91
2022-11-18T06:14:10.307Z,2.99
2022-11-18T06:19:12.269Z,3.02
2022-11-18T06:24:14.834Z,3.06
2022-11-18T06:29:21.662Z,3.10
2022-11-18T06:34:26.479Z,3.11
2022-11-18T06:39:28.610Z,3.09
2022-11-18T06:44:30.518Z,3.09
2022-11-18T06:49:32.566Z,3.11
2022-11-18T06:54:34.426Z,3.18
2022-11-18T06:59:36.298Z,3.08
2022-11-18T07:04:41.108Z,3.09
2022-11-18T07:09:43.019Z,3.08
2022-11-18T07:14:44.840Z,2.95
2022-11-18T07:19:46.713Z,2.86
2022-11-18T07:24:48.701Z,2.75
2022-11-18T07:29:50.577Z,2.74
2022-11-18T07:34:52.438Z,2.74
2022-11-18T07:39:54.286Z,2.64
2022-11-18T07:44:56.152Z,2.67
2022-11-18T07:49:58.002Z,2.74
2022-11-18T07:54:59.887Z,2.66
2022-11-18T08:00:01.966Z,2.80
2022-11-18T08:05:17.891Z,2.85
2022-11-18T08:10:20.054Z,2.97
2022-11-18T08:15:21.954Z,3.01
2022-11-18T08:20:27.427Z,2.95
2022-11-18T08:25:29.542Z,2.98
2022-11-18T08:30:33.456Z,3.12
2022-11-18T08:35:35.445Z,3.29
2022-11-18T08:40:37.520Z,3.34
2022-11-18T08:45:40.703Z,3.40
2022-11-18T08:50:42.548Z,3.45
2022-11-18T08:55:44.400Z,3.46
2022-11-18T09:00:46.316Z,3.45
2022-11-18T09:05:48.570Z,3.39
2022-11-18T09:10:50.503Z,3.36
2022-11-18T09:15:52.316Z,3.40
2022-11-18T09:20:58.352Z,3.46
2022-11-18T09:26:09.253Z,3.56
2022-11-18T09:31:13.894Z,3.44
2022-11-18T09:36:21.640Z,3.36
2022-11-18T09:41:43.781Z,3.29
2022-11-18T09:46:48.266Z,3.40
2022-11-18T09:51:52.623Z,3.48
2022-11-18T09:56:55.861Z,3.50
2022-11-18T10:02:14.716Z,3.53
2022-11-18T10:07:22.662Z,3.52
2022-11-18T10:12:40.257Z,3.48
2022-11-18T10:17:57.550Z,3.45
2022-11-18T10:23:21.796Z,3.23
2022-11-18T10:28:26.486Z,3.20
2022-11-18T10:33:29.327Z,3.06
2022-11-18T10:38:31.997Z,2.86
2022-11-18T10:43:55.218Z,2.80
2022-11-18T10:49:09.473Z,2.66
2022-11-18T10:54:14.356Z,2.61
2022-11-18T10:59:38.962Z,2.55
2022-11-18T11:04:41.864Z,2.50
2022-11-18T11:09:43.752Z,2.38
2022-11-18T11:14:54.970Z,2.39
2022-11-18T11:20:15.311Z,2.40
2022-11-18T11:25:18.916Z,2.43
2022-11-18T11:30:23.463Z,2.39
2022-11-18T11:36:11.648Z,2.27
2022-11-18T11:41:23.653Z,2.21
2022-11-18T11:46:28.356Z,2.12
2022-11-18T11:51:42.349Z,2.07
2022-11-18T11:56:58.045Z,2.16
2022-11-18T12:02:29.619Z,2.19
2022-11-18T12:07:39.326Z,2.20
2022-11-18T12:12:50.639Z,2.14
2022-11-18T12:18:14.638Z,2.07
2022-11-18T12:23:20.744Z,2.02
2022-11-18T12:28:31.604Z,1.94
2022-11-18T12:33:33.438Z,1.97
2022-11-18T12:38:35.444Z,1.88
2022-11-18T12:43:50.783Z,1.86
2022-11-18T12:48:53.187Z,1.81
2022-11-18T12:53:55.074Z,1.83
2022-11-18T12:59:01.972Z,1.78
2022-11-18T13:04:20.131Z,1.72
2022-11-18T13:09:25.304Z,1.61
2022-11-18T13:14:53.283Z,1.58
2022-11-18T13:19:58.807Z,1.63
2022-11-18T13:25:00.707Z,1.56
2022-11-18T13:30:14.042Z,1.52
2022-11-18T13:35:21.864Z,1.54
2022-11-18T13:40:27.670Z,1.44
2022-11-18T13:45:31.203Z,1.53
2022-11-18T13:50:41.025Z,1.51
2022-11-18T13:55:52.072Z,1.47
2022-11-18T14:01:00.921Z,1.41
2022-11-18T14:06:03.142Z,1.41
2022-11-18T14:11:06.705Z,1.37
2022-11-18T14:16:17.852Z,1.36
2022-11-18T14:21:31.230Z,1.30
2022-11-18T14:26:37.192Z,1.25
2022-11-18T14:31:39.332Z,1.19
2022-11-18T14:36:41.311Z,1.20
2022-11-18T14:41:49.159Z,1.20
2022-11-18T14:47:00.081Z,1.28
2022-11-18T14:52:02.990Z,1.21
2022-11-18T14:57:05.935Z,1.17
2022-11-18T15:02:18.005Z,1.06
2022-11-18T15:07:23.822Z,1.00
2022-11-18T15:12:26.883Z,1.13
2022-11-18T15:17:29.905Z,1.09
2022-11-18T15:22:31.836Z,1.05
2022-11-18T15:27:34.369Z,1.01
2022-11-18T15:32:36.220Z,1.03
2022-11-18T15:37:38.448Z,1.02
2022-11-18T15:42:50.433Z,0.98
2022-11-18T15:47:53.883Z,0.97
2022-11-18T15:52:55.894Z,1.00
2022-11-18T15:57:57.723Z,1.08
2022-11-18T16:02:59.490Z,1.11
2022-11-18T16:08:01.309Z,1.12
2022-11-18T16:13:03.121Z,1.12
2022-11-18T16:18:05.575Z,0.93
2022-11-18T16:23:07.481Z,0.85
2022-11-18T16:28:09.395Z,0.95
2022-11-18T16:33:11.343Z,1.02
2022-11-18T16:38:13.438Z,1.05
2022-11-18T16:43:15.261Z,1.09
2022-11-18T16:48:17.137Z,1.07
2022-11-18T16:53:18.979Z,1.09
2022-11-18T16:58:20.807Z,1.07
2022-11-18T17:03:23.473Z,1.10
2022-11-18T17:08:25.312Z,1.14
2022-11-18T17:13:28.344Z,1.11
2022-11-18T17:18:30.200Z,1.11
2022-11-18T17:23:32.135Z,1.10
2022-11-18T17:28:36.685Z,0.99
2022-11-18T17:33:39.335Z,0.95
2022-11-18T17:38:43.435Z,0.94
2022-11-18T17:43:45.250Z,0.80
2022-11-18T17:48:47.241Z,0.70
2022-11-18T17:53:49.729Z,0.77
2022-11-18T17:58:52.881Z,0.71
2022-11-18T18:03:54.835Z,0.78
2022-11-18T18:08:57.886Z,0.80
2022-11-18T18:14:15.114Z,0.86
2022-11-18T18:19:20.155Z,0.80
2022-11-18T18:24:22.452Z,0.78
2022-11-18T18:29:25.847Z,0.81
2022-11-18T18:34:28.883Z,0.71
2022-11-18T18:39:30.749Z,0.68
2022-11-18T18:44:51.336Z,0.60
2022-11-18T18:49:53.238Z,0.63
2022-11-18T18:54:55.146Z,0.64
2022-11-18T18:59:56.984Z,0.62
2022-11-18T19:04:59.893Z,0.58
2022-11-18T19:10:02.084Z,0.56
2022-11-18T19:15:04.425Z,0.63
2022-11-18T19:20:26.653Z,0.63
2022-11-18T19:25:28.640Z,0.62
2022-11-18T19:30:30.599Z,0.60
2022-11-18T19:35:32.523Z,0.52
2022-11-18T19:40:34.345Z,0.48
2022-11-18T19:45:36.176Z,0.42
2022-11-18T19:50:38.013Z,0.47
2022-11-18T19:55:39.865Z,0.48
2022-11-18T20:00:41.826Z,0.50
2022-11-18T20:05:53.262Z,0.50
2022-11-18T20:10:55.075Z,0.56
2022-11-18T20:16:21.004Z,0.53
2022-11-18T20:21:24.442Z,0.49
2022-11-18T20:26:38.582Z,0.46
2022-11-18T20:31:41.139Z,0.38
2022-11-18T20:36:43.344Z,0.29
2022-11-18T20:42:05.402Z,0.26
2022-11-18T20:47:07.342Z,0.26
2022-11-18T20:52:09.187Z,0.32
2022-11-18T20:57:11.282Z,0.33
2022-11-18T21:02:13.094Z,0.31
2022-11-18T21:07:15.015Z,0.28
2022-11-18T21:12:16.985Z,0.33
2022-11-18T21:17:19.268Z,0.33
2022-11-18T21:22:21.166Z,0.34
2022-11-18T21:27:23.034Z,0.36
2022-11-18T21:32:24.919Z,0.31
2022-11-18T21:37:26.751Z,0.29
2022-11-18T21:42:28.618Z,0.32
2022-11-18T21:47:30.470Z,0.34
2022-11-18T21:52:32.434Z,0.36
2022-11-18T21:57:34.371Z,0.35
2022-11-18T22:02:36.420Z,0.33
2022-11-18T22:07:38.341Z,0.32
2022-11-18T22:12:49.181Z,0.25
2022-11-18T22:17:51.049Z,0.18
2022-11-18T22:22:52.942Z,0.15
2022-11-18T22:27:55.514Z,0.13
2022-11-18T22:32:57.411Z,0.13
2022-11-18T22:37:59.383Z,0.11
2022-11-18T22:43:01.476Z,0.13
2022-11-18T22:48:08.884Z,0.15
2022-11-18T22:53:11.922Z,0.14
2022-11-18T22:58:13.731Z,0.12
2022-11-18T23:03:15.637Z,0.14
2022-11-18T23:08:17.487Z,0.17
2022-11-18T23:13:38.245Z,0.18
2022-11-18T23:18:40.170Z,0.21
2022-11-18T23:23:42.014Z,0.23
2022-11-18T23:28:43.977Z,0.22
2022-11-18T23:33:46.636Z,0.20
2022-11-18T23:38:48.712Z,0.19
2022-11-18T23:43:52.195Z,0.20
2022-11-18T23:48:54.096Z,0.19
2022-11-18T23:53:57.697Z,0.23
2022-11-18T23:58:59.558Z,0.26
